Time;durP1;ratioP1;P1;durP2;ratioP2;P2;SDS_P1;SDS_P2;PMS_P1;PMS_P2;Temp;Humidity;BMP_temperature;BMP_pressure;BME280_temperature;BME280_humidity;BME280_pressure;Samples;Min_cycle;Max_cycle;Signal;HPM_P1;HPM_P2
2023/04/11 09:43:56;;;;;;;6.70;6.03;;;22.10;95.70;;;;;;5138072;27;20612;-96
2023/04/11 09:46:23;;;;;;;8.47;5.00;;;21.90;95.10;;;;;;5117814;28;20456;-95
2023/04/11 09:48:50;;;;;;;6.13;5.50;;;21.80;95.80;;;;;;5101149;28;20448;-95
2023/04/11 09:51:21;;;;;;;6.27;5.77;;;21.80;95.60;;;;;;5109675;28;20457;-96
2023/04/11 09:53:53;;;;;;;5.13;4.73;;;21.70;94.60;;;;;;5109157;28;20440;-96
2023/04/11 09:56:25;;;;;;;5.53;5.00;;;21.60;94.00;;;;;;5095859;28;20445;-96
2023/04/11 09:58:53;;;;;;;5.47;5.00;;;21.40;93.30;;;;;;5097740;28;20459;-95
2023/04/11 10:01:23;;;;;;;5.63;5.10;;;21.20;94.40;;;;;;5088980;28;20469;-96
2023/04/11 10:03:49;;;;;;;5.23;4.83;;;21.10;95.00;;;;;;5086154;28;20804;-95
2023/04/11 10:06:30;;;;;;;5.37;4.87;;;21.10;95.10;;;;;;5087534;28;20460;-94
2023/04/11 10:09:08;;;;;;;4.90;4.50;;;21.10;94.70;;;;;;5096494;28;20425;-95
2023/04/11 10:11:34;;;;;;;5.40;4.67;;;21.30;94.70;;;;;;5079060;28;20988;-95
2023/04/11 10:14:04;;;;;;;5.10;4.70;;;21.40;94.40;;;;;;5114688;28;20925;-96
2023/04/11 10:16:33;;;;;;;4.67;4.27;;;21.40;94.20;;;;;;5094538;28;20464;-95
2023/04/11 10:19:03;;;;;;;5.70;5.20;;;21.50;93.00;;;;;;5093059;28;20939;-94
2023/04/11 10:21:35;;;;;;;5.20;4.70;;;21.60;93.20;;;;;;5076062;28;20445;-96
2023/04/11 10:24:16;;;;;;;6.23;4.83;;;21.60;93.40;;;;;;5096882;28;20869;-96
2023/04/11 10:26:47;;;;;;;5.50;5.07;;;21.50;92.90;;;;;;5085032;28;20556;-95
2023/04/11 10:29:28;;;;;;;5.90;5.30;;;21.40;93.20;;;;;;5092236;28;20433;-96
2023/04/11 10:32:18;;;;;;;6.30;5.70;;;21.20;93.20;;;;;;5095502;28;20460;-96
2023/04/11 10:34:54;;;;;;;5.00;4.60;;;21.10;93.70;;;;;;5093777;28;20437;-96
2023/04/11 10:40:09;;;;;;;5.87;4.80;;;20.90;93.60;;;;;;5046169;28;20886;-83
2023/04/11 10:42:40;;;;;;;7.10;6.20;;;20.90;93.80;;;;;;5059786;28;20469;-82
2023/04/11 10:45:29;;;;;;;5.90;5.40;;;20.90;94.00;;;;;;5062538;28;20404;-82
2023/04/11 10:48:10;;;;;;;5.37;4.87;;;20.80;94.20;;;;;;5035157;28;20461;-81
2023/04/11 10:50:40;;;;;;;6.10;5.47;;;20.80;94.20;;;;;;5067792;28;20452;-82
2023/04/11 10:53:08;;;;;;;8.53;6.30;;;20.90;94.30;;;;;;5044195;28;20455;-82
2023/04/11 10:55:50;;;;;;;7.17;5.43;;;21.00;93.90;;;;;;5028610;28;20441;-82
2023/04/11 10:58:20;;;;;;;5.57;5.13;;;21.10;94.20;;;;;;5043656;28;20461;-82
2023/04/11 11:00:49;;;;;;;7.23;5.90;;;21.10;93.80;;;;;;5047096;28;20418;-82
2023/04/11 11:03:35;;;;;;;7.43;5.60;;;21.10;93.50;;;;;;5031074;28;20576;-82
2023/04/11 11:06:04;;;;;;;6.60;6.00;;;21.00;93.00;;;;;;5037482;28;20564;-82
2023/04/11 11:08:36;;;;;;;8.73;6.13;;;20.80;93.40;;;;;;5042863;28;20463;-83
2023/04/11 11:11:05;;;;;;;6.60;6.00;;;20.70;93.70;;;;;;5028881;28;20483;-83
2023/04/11 11:13:44;;;;;;;6.27;5.70;;;20.80;93.60;;;;;;5043137;28;20890;-82
2023/04/11 11:16:23;;;;;;;8.93;7.63;;;20.70;94.10;;;;;;5022241;28;20454;-83
2023/04/11 11:18:54;;;;;;;7.10;6.40;;;20.80;94.10;;;;;;5015714;28;20478;-83
2023/04/11 11:21:23;;;;;;;6.93;6.30;;;20.80;94.40;;;;;;5033744;28;20492;-83
2023/04/11 11:23:59;;;;;;;7.63;6.50;;;20.90;94.70;;;;;;5029355;28;20450;-83
2023/04/11 11:26:39;;;;;;;13.43;6.87;;;20.90;94.50;;;;;;5017133;28;20476;-83
2023/04/11 11:29:06;;;;;;;6.73;6.13;;;20.90;94.40;;;;;;5035268;28;20434;-83
2023/04/11 11:31:38;;;;;;;6.93;6.23;;;21.10;94.50;;;;;;5035310;28;20446;-83
2023/04/11 11:34:25;;;;;;;7.30;6.60;;;21.20;94.10;;;;;;5053583;28;20442;-82
2023/04/11 11:36:51;;;;;;;7.53;6.67;;;21.20;94.70;;;;;;5030245;28;20447;-83
2023/04/11 11:39:17;;;;;;;6.87;6.07;;;21.30;94.60;;;;;;5031476;28;20518;-82
2023/04/11 11:41:43;;;;;;;8.10;7.10;;;21.40;94.40;;;;;;5046353;28;20511;-83
2023/04/11 11:44:24;;;;;;;6.83;6.23;;;21.50;94.80;;;;;;5027420;28;20201;-82
2023/04/11 11:47:13;;;;;;;7.57;6.77;;;21.70;94.40;;;;;;5049090;28;20190;-83
2023/04/11 11:49:43;;;;;;;8.87;8.07;;;21.50;93.00;;;;;;5032864;28;20823;-82
2023/04/11 11:52:10;;;;;;;7.40;6.67;;;21.60;93.60;;;;;;5050969;28;20454;-83
2023/04/11 11:54:46;;;;;;;7.17;6.57;;;21.60;93.50;;;;;;5034382;28;20819;-83
2023/04/11 11:57:19;;;;;;;6.90;6.30;;;21.60;93.60;;;;;;5030276;28;20818;-84
2023/04/11 11:59:50;;;;;;;7.50;6.80;;;21.70;93.70;;;;;;5028215;28;20785;-83
2023/04/11 12:02:16;;;;;;;7.70;6.90;;;21.80;93.10;;;;;;5026782;28;20479;-83
2023/04/11 12:04:43;;;;;;;8.30;7.60;;;21.80;92.80;;;;;;5022568;28;20773;-83
2023/04/11 12:07:09;;;;;;;7.67;6.57;;;21.90;92.30;;;;;;5052331;28;20277;-83
2023/04/11 12:09:35;;;;;;;8.60;7.90;;;21.90;92.20;;;;;;5050838;28;20422;-83
2023/04/11 12:12:01;;;;;;;8.57;7.27;;;22.00;92.20;;;;;;5051630;28;20462;-83
2023/04/11 12:14:28;;;;;;;7.43;6.47;;;22.00;91.40;;;;;;5051183;28;20178;-82
2023/04/11 12:16:54;;;;;;;7.57;6.87;;;21.80;91.70;;;;;;5021663;28;20217;-82
2023/04/11 12:19:20;;;;;;;7.63;6.83;;;21.70;91.40;;;;;;5026629;28;20583;-82
2023/04/11 12:21:45;;;;;;;9.60;8.43;;;21.60;92.00;;;;;;5044133;28;21019;-83
2023/04/11 12:24:11;;;;;;;8.60;6.90;;;21.60;92.70;;;;;;5037566;28;20205;-83
2023/04/11 12:26:37;;;;;;;7.47;6.77;;;21.60;92.40;;;;;;5035942;28;20694;-82
2023/04/11 12:29:06;;;;;;;8.97;8.13;;;21.60;92.50;;;;;;5027769;28;20433;-83
2023/04/11 12:31:31;;;;;;;8.53;7.73;;;21.70;92.20;;;;;;5031802;28;20708;-83
2023/04/11 12:33:57;;;;;;;9.57;8.00;;;21.80;91.90;;;;;;5042646;28;20430;-83
2023/04/11 12:36:23;;;;;;;12.10;7.53;;;21.80;91.80;;;;;;5043391;28;20554;-83
2023/04/11 12:38:49;;;;;;;9.47;8.57;;;21.60;90.60;;;;;;5031525;28;20251;-82
2023/04/11 12:41:14;;;;;;;9.17;8.37;;;21.40;91.20;;;;;;5038470;28;20436;-83
2023/04/11 12:43:40;;;;;;;8.50;7.40;;;21.30;91.70;;;;;;5040616;28;20189;-82
2023/04/11 12:46:06;;;;;;;9.07;8.20;;;21.20;91.60;;;;;;5022421;28;20680;-82
2023/04/11 12:48:32;;;;;;;9.30;8.40;;;21.10;91.40;;;;;;5032535;28;20486;-83
2023/04/11 12:50:58;;;;;;;9.00;8.10;;;20.90;91.70;;;;;;5041340;28;20197;-83
2023/04/11 12:53:24;;;;;;;8.93;8.03;;;20.80;92.10;;;;;;5025428;28;20263;-83
2023/04/11 12:55:50;;;;;;;8.90;8.00;;;20.80;92.70;;;;;;5039541;28;20926;-83
2023/04/11 12:58:16;;;;;;;12.43;8.80;;;20.90;92.70;;;;;;5026125;28;20761;-83
2023/04/11 13:00:41;;;;;;;8.67;7.87;;;21.00;93.00;;;;;;5022018;28;20434;-82
2023/04/11 13:03:07;;;;;;;11.10;8.50;;;21.10;92.90;;;;;;5023711;28;20226;-83
2023/04/11 13:05:33;;;;;;;9.07;8.27;;;21.20;92.50;;;;;;5034964;28;20218;-83
2023/04/11 13:07:58;;;;;;;11.33;8.47;;;21.20;92.20;;;;;;5024293;28;20212;-82
2023/04/11 13:10:24;;;;;;;9.60;8.60;;;21.10;92.10;;;;;;5040384;28;20195;-83
2023/04/11 13:12:52;;;;;;;9.10;8.20;;;21.10;92.00;;;;;;5027143;28;20677;-83
2023/04/11 13:15:17;;;;;;;12.00;9.73;;;21.10;92.10;;;;;;5033740;28;20457;-83
2023/04/11 13:17:43;;;;;;;12.30;9.20;;;21.10;92.10;;;;;;5040219;28;20466;-83
2023/04/11 13:20:09;;;;;;;10.27;8.40;;;21.00;92.50;;;;;;5036369;28;20192;-83
2023/04/11 13:22:36;;;;;;;9.00;8.13;;;21.00;92.20;;;;;;5043908;28;20839;-83
2023/04/11 13:25:02;;;;;;;12.40;8.90;;;21.00;92.50;;;;;;5019741;28;20443;-83
2023/04/11 13:27:28;;;;;;;11.00;9.90;;;21.00;92.40;;;;;;5041304;28;20538;-82
2023/04/11 13:29:54;;;;;;;10.60;9.50;;;21.00;92.60;;;;;;5025978;28;20430;-83
2023/04/11 13:32:19;;;;;;;10.00;9.00;;;21.00;92.60;;;;;;5016292;28;20212;-82
2023/04/11 13:34:46;;;;;;;9.63;8.73;;;21.00;92.70;;;;;;5025302;28;20231;-83
2023/04/11 13:37:11;;;;;;;9.70;8.70;;;21.00;92.60;;;;;;5036057;28;20190;-83
2023/04/11 13:39:37;;;;;;;12.63;10.60;;;21.00;92.60;;;;;;5019225;28;20995;-83
2023/04/11 13:42:03;;;;;;;10.90;8.77;;;21.00;92.40;;;;;;5018296;28;20231;-84
2023/04/11 13:44:28;;;;;;;9.40;8.30;;;20.90;92.60;;;;;;5027370;28;20685;-81
2023/04/11 13:46:54;;;;;;;12.57;9.30;;;20.90;92.40;;;;;;5009699;28;20194;-81
2023/04/11 13:49:20;;;;;;;10.27;9.17;;;20.90;92.30;;;;;;5042445;28;20590;-80
2023/04/11 13:51:46;;;;;;;10.63;9.20;;;20.90;92.20;;;;;;5045347;28;20450;-81
2023/04/11 13:54:11;;;;;;;12.30;10.33;;;20.90;92.30;;;;;;5037836;28;20613;-80
2023/04/11 13:56:37;;;;;;;11.10;9.90;;;20.80;92.40;;;;;;5040195;28;20283;-81
2023/04/11 13:59:02;;;;;;;10.93;9.10;;;20.80;92.30;;;;;;5026445;28;20231;-81
2023/04/11 14:01:28;;;;;;;9.33;8.30;;;20.90;91.60;;;;;;5047531;28;20301;-83
2023/04/11 14:03:53;;;;;;;9.53;8.63;;;20.90;91.80;;;;;;5023051;28;20188;-82
2023/04/11 14:06:19;;;;;;;10.27;9.13;;;20.70;91.40;;;;;;5041414;28;20699;-84
2023/04/11 14:08:45;;;;;;;10.00;8.50;;;20.60;91.70;;;;;;5044094;28;20277;-83
2023/04/11 14:11:11;;;;;;;11.13;9.30;;;20.60;91.80;;;;;;5022473;28;20601;-83
2023/04/11 14:13:37;;;;;;;11.80;9.77;;;20.60;92.00;;;;;;5045577;28;20720;-82
2023/04/11 14:16:02;;;;;;;10.83;9.37;;;20.60;92.10;;;;;;5038827;28;20434;-84
2023/04/11 14:18:28;;;;;;;10.83;9.10;;;20.60;92.10;;;;;;5024967;28;20455;-84
2023/04/11 14:20:57;;;;;;;8.70;7.80;;;20.50;92.00;;;;;;5031676;28;20569;-83
2023/04/11 14:23:22;;;;;;;10.83;8.23;;;20.60;91.70;;;;;;5021388;28;20230;-83
2023/04/11 14:25:48;;;;;;;9.23;8.30;;;20.60;91.10;;;;;;5018635;28;20435;-84
2023/04/11 14:28:15;;;;;;;9.40;8.50;;;20.50;91.30;;;;;;5040829;28;20208;-82
2023/04/11 14:30:41;;;;;;;10.37;8.43;;;20.50;91.50;;;;;;5021159;28;20436;-84
2023/04/11 14:33:06;;;;;;;11.00;8.90;;;20.50;91.70;;;;;;5029703;28;20473;-82
2023/04/11 14:35:32;;;;;;;8.90;7.97;;;20.50;91.70;;;;;;5019434;28;20192;-82
2023/04/11 14:37:58;;;;;;;8.00;7.20;;;20.60;91.10;;;;;;5024563;28;20198;-84
2023/04/11 14:40:23;;;;;;;8.33;7.33;;;20.60;91.00;;;;;;5048299;28;20180;-82
2023/04/11 14:42:49;;;;;;;8.83;7.70;;;20.60;91.10;;;;;;5029710;28;20233;-83
2023/04/11 14:45:15;;;;;;;8.60;7.23;;;20.70;90.10;;;;;;5035248;28;20184;-82
2023/04/11 14:47:42;;;;;;;11.77;7.80;;;20.60;90.60;;;;;;5021897;28;20213;-82
2023/04/11 14:50:08;;;;;;;9.23;7.47;;;20.60;90.20;;;;;;5030274;28;20411;-84
2023/04/11 14:52:33;;;;;;;10.10;8.20;;;20.60;89.20;;;;;;5028948;28;21032;-83
2023/04/11 14:54:59;;;;;;;9.20;7.13;;;20.50;90.10;;;;;;5012404;28;20426;-83
2023/04/11 14:57:42;;;;;;;8.60;7.60;;;20.40;90.20;;;;;;5046288;28;20296;-84
2023/04/11 15:00:14;;;;;;;8.30;7.50;;;20.40;89.70;;;;;;5049808;28;20451;-84
2023/04/11 15:02:39;;;;;;;7.43;6.73;;;20.40;89.00;;;;;;5049899;28;20498;-83
2023/04/11 15:05:07;;;;;;;8.20;7.00;;;20.40;89.10;;;;;;5035023;28;20422;-83
2023/04/11 15:07:32;;;;;;;11.37;7.23;;;20.40;89.00;;;;;;5030205;28;20206;-83
2023/04/11 15:09:58;;;;;;;7.83;7.03;;;20.40;87.80;;;;;;5030862;28;20621;-82
2023/04/11 15:12:24;;;;;;;7.30;6.60;;;20.30;88.60;;;;;;5014702;28;20197;-84
2023/04/11 15:14:49;;;;;;;8.50;7.43;;;20.30;88.40;;;;;;5037734;28;20185;-83
2023/04/11 15:17:15;;;;;;;8.80;7.90;;;20.30;89.30;;;;;;5026334;28;20190;-83
2023/04/11 15:19:40;;;;;;;9.57;8.63;;;20.30;89.60;;;;;;5047688;28;20642;-82
2023/04/11 15:22:06;;;;;;;10.03;9.03;;;20.20;89.10;;;;;;5032263;28;20228;-84
2023/04/11 15:24:32;;;;;;;10.00;8.27;;;20.20;89.70;;;;;;5050641;28;20628;-83
2023/04/11 15:26:58;;;;;;;9.40;8.40;;;20.20;89.80;;;;;;5016531;28;20434;-82
2023/04/11 15:29:24;;;;;;;9.53;8.50;;;20.10;90.10;;;;;;5015016;28;20176;-83
2023/04/11 15:31:49;;;;;;;9.80;8.80;;;20.10;90.20;;;;;;5015357;28;20201;-82
2023/04/11 15:34:15;;;;;;;11.87;10.67;;;20.00;90.40;;;;;;5043637;28;20433;-84
2023/04/11 15:36:41;;;;;;;11.90;9.90;;;20.10;90.60;;;;;;5052274;28;20193;-83
2023/04/11 15:39:08;;;;;;;12.80;9.30;;;20.00;90.60;;;;;;5033304;28;20597;-83
2023/04/11 15:41:33;;;;;;;12.67;10.20;;;20.00;90.80;;;;;;5049570;28;20206;-82
2023/04/11 15:43:59;;;;;;;13.63;10.37;;;20.00;90.80;;;;;;5028535;28;20437;-82
2023/04/11 15:46:25;;;;;;;11.87;9.70;;;19.90;90.80;;;;;;5034369;28;20224;-84
2023/04/11 15:48:51;;;;;;;15.13;10.33;;;19.90;91.00;;;;;;5026537;28;20192;-83
2023/04/11 15:51:17;;;;;;;11.90;10.00;;;19.90;90.70;;;;;;5033057;28;20403;-84
2023/04/11 15:53:42;;;;;;;10.67;9.03;;;19.90;90.90;;;;;;5036192;28;20190;-81
2023/04/11 15:56:12;;;;;;;10.97;8.67;;;19.90;90.70;;;;;;5034895;28;20193;-81
2023/04/11 15:58:37;;;;;;;9.83;8.07;;;19.90;90.70;;;;;;5033816;28;20186;-84
2023/04/11 16:01:04;;;;;;;10.27;9.17;;;20.00;90.40;;;;;;5033129;28;20784;-84
2023/04/11 16:03:32;;;;;;;10.80;9.50;;;20.00;90.40;;;;;;5045773;28;20224;-86
2023/04/11 16:06:00;;;;;;;13.13;10.10;;;20.00;90.60;;;;;;5035445;28;20421;-85
2023/04/11 16:08:28;;;;;;;14.23;9.13;;;20.00;90.10;;;;;;5035607;28;20489;-83
2023/04/11 16:10:54;;;;;;;13.03;10.30;;;20.00;90.30;;;;;;5052711;28;20410;-86
2023/04/11 16:13:20;;;;;;;9.70;8.47;;;19.90;89.60;;;;;;5042389;28;20457;-83
2023/04/11 16:15:46;;;;;;;12.33;8.63;;;19.90;89.50;;;;;;5032470;28;20951;-82
2023/04/11 16:18:11;;;;;;;11.17;8.30;;;19.80;89.70;;;;;;5025226;28;20308;-85
2023/04/11 16:20:38;;;;;;;12.43;9.67;;;19.80;90.10;;;;;;5033020;28;20227;-82
2023/04/11 16:23:04;;;;;;;12.07;9.80;;;19.80;90.30;;;;;;5050789;28;20218;-83
2023/04/11 16:25:30;;;;;;;13.70;10.63;;;19.80;90.40;;;;;;5053180;28;20403;-84
2023/04/11 16:27:56;;;;;;;13.13;11.40;;;19.80;90.60;;;;;;5035079;28;20250;-87
2023/04/11 16:30:24;;;;;;;11.40;10.20;;;19.80;90.70;;;;;;5035836;28;20428;-85
2023/04/11 16:32:49;;;;;;;10.40;9.33;;;19.80;90.70;;;;;;5033856;28;20816;-83
2023/04/11 16:35:15;;;;;;;10.27;9.23;;;19.80;90.70;;;;;;5037008;28;20408;-90
2023/04/11 16:37:41;;;;;;;11.27;8.73;;;19.80;90.40;;;;;;5037350;28;20208;-82
2023/04/11 16:40:09;;;;;;;11.17;9.97;;;19.70;90.50;;;;;;5014218;28;20196;-83
2023/04/11 16:42:35;;;;;;;10.50;9.37;;;19.70;90.60;;;;;;5024275;28;20235;-82
2023/04/11 16:45:01;;;;;;;11.23;9.53;;;19.70;90.60;;;;;;5031525;28;20422;-91
2023/04/11 16:47:27;;;;;;;12.93;9.90;;;19.70;90.70;;;;;;5015259;28;20672;-85
2023/04/11 16:49:53;;;;;;;15.23;10.63;;;19.70;90.80;;;;;;5030176;28;20204;-81
2023/04/11 16:52:18;;;;;;;12.50;10.37;;;19.60;90.70;;;;;;5039181;28;20214;-83
2023/04/11 16:54:44;;;;;;;13.13;10.67;;;19.60;90.80;;;;;;5033905;28;20409;-83
2023/04/11 16:57:10;;;;;;;11.03;9.93;;;19.60;90.80;;;;;;5053644;28;20221;-83
2023/04/11 16:59:35;;;;;;;10.47;8.80;;;19.50;90.80;;;;;;5035867;28;20214;-81
2023/04/11 17:02:01;;;;;;;9.97;9.03;;;19.50;90.80;;;;;;5034006;28;20926;-86
2023/04/11 17:04:27;;;;;;;10.77;9.33;;;19.40;90.80;;;;;;5016472;28;20212;-84
2023/04/11 17:06:54;;;;;;;10.90;8.63;;;19.30;90.40;;;;;;5049433;28;20208;-82
2023/04/11 17:09:21;;;;;;;8.53;7.50;;;19.20;90.30;;;;;;5053843;28;20788;-83
2023/04/11 17:11:46;;;;;;;8.43;7.63;;;19.10;90.30;;;;;;5049674;28;20445;-84
2023/04/11 17:14:12;;;;;;;10.00;7.90;;;18.90;90.40;;;;;;5036082;28;20775;-82
2023/04/11 17:16:38;;;;;;;9.30;8.27;;;18.80;90.40;;;;;;5035997;28;20199;-84
2023/04/11 17:19:03;;;;;;;8.33;7.40;;;18.80;90.30;;;;;;5036318;28;20179;-84
2023/04/11 17:21:30;;;;;;;9.67;8.77;;;18.60;90.20;;;;;;5035818;28;20276;-85
2023/04/11 17:23:56;;;;;;;14.03;8.67;;;18.40;90.20;;;;;;5054336;28;20175;-82
2023/04/11 17:26:22;;;;;;;9.00;7.80;;;18.20;90.80;;;;;;5053688;28;20918;-85
2023/04/11 17:28:47;;;;;;;29.73;9.33;;;18.00;91.20;;;;;;5036005;28;20341;-83
2023/04/11 17:31:14;;;;;;;10.97;8.07;;;17.80;91.60;;;;;;5053626;28;20166;-82
2023/04/11 17:33:41;;;;;;;9.70;8.27;;;17.70;91.80;;;;;;5053991;28;20177;-84
2023/04/11 17:36:07;;;;;;;9.83;6.80;;;17.50;92.00;;;;;;5053654;28;20934;-84
2023/04/11 17:38:33;;;;;;;9.17;7.03;;;17.50;92.50;;;;;;5035483;28;20482;-84
2023/04/11 17:40:59;;;;;;;10.67;7.17;;;17.40;93.00;;;;;;5053487;28;20464;-82
2023/04/11 17:43:25;;;;;;;9.87;6.40;;;17.20;93.70;;;;;;5035679;28;20234;-83
2023/04/11 17:45:51;;;;;;;6.50;5.70;;;17.10;94.20;;;;;;5035745;28;20821;-83
2023/04/11 17:48:17;;;;;;;14.97;7.67;;;17.10;94.50;;;;;;5053451;28;20306;-83
2023/04/11 17:50:45;;;;;;;9.80;5.57;;;16.90;94.90;;;;;;5053530;28;20284;-83
2023/04/11 17:53:14;;;;;;;8.43;6.20;;;16.90;94.90;;;;;;5053707;28;20447;-83
2023/04/11 17:55:40;;;;;;;6.87;5.07;;;16.80;95.20;;;;;;5053440;28;20407;-82
2023/04/11 17:58:06;;;;;;;7.57;5.27;;;16.70;95.30;;;;;;5035386;28;20860;-83
2023/04/11 18:00:32;;;;;;;10.30;6.50;;;16.70;95.60;;;;;;5035611;28;20464;-83
2023/04/11 18:02:58;;;;;;;7.60;5.63;;;16.60;95.80;;;;;;5053193;28;20871;-84
2023/04/11 18:05:26;;;;;;;7.00;5.97;;;16.50;96.00;;;;;;5039559;28;20178;-82
2023/04/11 18:07:56;;;;;;;6.80;5.53;;;16.40;96.10;;;;;;5039544;28;20458;-83
2023/04/11 18:10:22;;;;;;;7.70;5.60;;;16.40;96.20;;;;;;5039391;28;20457;-84
2023/04/11 18:12:50;;;;;;;7.60;5.57;;;16.40;96.50;;;;;;5057405;28;20442;-84
2023/04/11 18:15:16;;;;;;;6.90;5.60;;;16.30;96.60;;;;;;5039612;28;20418;-84
2023/04/11 18:17:43;;;;;;;8.43;5.43;;;16.30;96.80;;;;;;5039067;28;20461;-84
2023/04/11 18:20:14;;;;;;;10.60;6.03;;;16.30;97.00;;;;;;5039348;28;20410;-83
2023/04/11 18:22:45;;;;;;;6.40;5.10;;;16.20;97.20;;;;;;5038955;28;20501;-84
2023/04/11 18:25:11;;;;;;;5.60;5.10;;;16.20;97.50;;;;;;5057112;28;20451;-84
2023/04/11 18:27:37;;;;;;;6.77;5.90;;;16.10;97.70;;;;;;5053631;28;20458;-84
2023/04/11 18:30:05;;;;;;;8.10;5.80;;;16.00;97.90;;;;;;5044899;28;20429;-82
2023/04/11 18:32:31;;;;;;;7.20;5.93;;;16.00;98.00;;;;;;5038354;28;20462;-84
2023/04/11 18:35:03;;;;;;;6.97;6.00;;;15.90;98.20;;;;;;5043679;28;20434;-83
2023/04/11 18:37:30;;;;;;;9.67;6.47;;;15.90;98.30;;;;;;5040749;28;20469;-84
2023/04/11 18:39:57;;;;;;;7.87;6.43;;;15.90;98.50;;;;;;5043581;28;20475;-83
2023/04/11 18:42:23;;;;;;;9.40;6.70;;;15.90;98.60;;;;;;5035957;28;20863;-84
2023/04/11 18:44:49;;;;;;;7.47;6.20;;;15.90;98.80;;;;;;5030960;28;20572;-82
2023/04/11 18:47:14;;;;;;;7.40;6.30;;;15.90;99.00;;;;;;5034884;28;20499;-84
2023/04/11 18:49:40;;;;;;;10.60;5.80;;;15.80;99.10;;;;;;5035995;28;20221;-83
2023/04/11 18:52:07;;;;;;;7.80;6.00;;;15.80;99.20;;;;;;5056443;28;20194;-83
2023/04/11 18:54:34;;;;;;;7.70;5.80;;;15.80;99.40;;;;;;5055386;28;20821;-83
2023/04/11 18:57:00;;;;;;;7.90;6.33;;;15.80;99.60;;;;;;5038108;28;20969;-83
2023/04/11 18:59:26;;;;;;;7.00;5.60;;;15.80;99.80;;;;;;5031290;28;20427;-82
2023/04/11 19:01:52;;;;;;;10.10;7.60;;;15.70;99.90;;;;;;5053069;28;20517;-83
2023/04/11 19:04:18;;;;;;;8.13;5.90;;;15.70;99.90;;;;;;5048138;28;20461;-82
2023/04/11 19:06:43;;;;;;;11.57;5.53;;;15.60;99.90;;;;;;5037515;28;20564;-83
2023/04/11 19:09:09;;;;;;;11.23;6.10;;;15.60;99.90;;;;;;5054191;28;20415;-83
2023/04/11 19:11:37;;;;;;;7.33;6.47;;;15.50;99.90;;;;;;5036217;28;20431;-82
2023/04/11 19:14:03;;;;;;;5.97;5.10;;;15.40;99.90;;;;;;5035815;28;20189;-83
2023/04/11 19:16:30;;;;;;;6.93;6.00;;;15.40;99.90;;;;;;5054203;28;20415;-83
2023/04/11 19:18:57;;;;;;;7.53;5.97;;;15.40;99.90;;;;;;5036313;28;20438;-83
2023/04/11 19:21:24;;;;;;;8.17;5.67;;;15.30;99.90;;;;;;5053775;28;20406;-83
2023/04/11 19:23:50;;;;;;;8.20;5.60;;;15.20;99.90;;;;;;5036090;28;20496;-82
2023/04/11 19:26:17;;;;;;;7.03;5.77;;;15.20;99.90;;;;;;5053787;28;20776;-83
2023/04/11 19:28:43;;;;;;;6.50;5.73;;;15.20;99.90;;;;;;5054132;28;20418;-83
2023/04/11 19:31:08;;;;;;;6.33;5.27;;;15.10;99.90;;;;;;5035788;28;20423;-82
2023/04/11 19:33:34;;;;;;;6.10;5.33;;;15.10;99.90;;;;;;5054089;28;20431;-83
2023/04/11 19:36:00;;;;;;;7.87;5.27;;;15.00;99.90;;;;;;5055716;28;20176;-83
2023/04/11 19:38:27;;;;;;;8.80;5.73;;;15.00;99.90;;;;;;5037582;28;21065;-83
2023/04/11 19:40:52;;;;;;;7.93;5.10;;;14.90;99.90;;;;;;5037745;28;20931;-83
2023/04/11 19:43:18;;;;;;;5.20;4.70;;;14.90;99.90;;;;;;5055724;28;20528;-83
2023/04/11 19:45:45;;;;;;;5.87;5.27;;;14.90;99.90;;;;;;5037580;28;20200;-82
2023/04/11 19:48:11;;;;;;;7.20;5.77;;;14.90;99.90;;;;;;5055804;28;20443;-83
2023/04/11 19:50:36;;;;;;;6.60;5.40;;;14.80;99.90;;;;;;5055615;28;20414;-83
2023/04/11 19:53:02;;;;;;;6.03;5.43;;;14.80;99.90;;;;;;5055281;28;20442;-84
2023/04/11 19:55:28;;;;;;;6.73;5.50;;;14.70;99.90;;;;;;5055361;28;20170;-82
2023/04/11 19:57:54;;;;;;;5.30;4.80;;;14.70;99.90;;;;;;5055474;28;20540;-83
2023/04/11 20:00:20;;;;;;;5.77;5.17;;;14.70;99.90;;;;;;5037430;28;20587;-82
2023/04/11 20:02:47;;;;;;;6.77;5.10;;;14.60;99.90;;;;;;5037215;28;20228;-84
2023/04/11 20:05:14;;;;;;;6.13;5.30;;;14.60;99.90;;;;;;5055201;28;20482;-82
2023/04/11 20:07:41;;;;;;;7.80;5.40;;;14.50;99.90;;;;;;5055247;28;20486;-83
2023/04/11 20:10:07;;;;;;;7.10;5.17;;;14.50;99.90;;;;;;5037151;28;20415;-83
2023/04/11 20:12:36;;;;;;;6.77;4.97;;;14.40;99.90;;;;;;5037053;28;20467;-82
2023/04/11 20:15:02;;;;;;;5.80;4.97;;;14.40;99.90;;;;;;5037090;28;20556;-81
2023/04/11 20:17:28;;;;;;;6.10;5.00;;;14.40;99.90;;;;;;5055050;28;20990;-83
2023/04/11 20:19:57;;;;;;;9.40;5.10;;;14.30;99.90;;;;;;5055076;28;20782;-83
2023/04/11 20:22:23;;;;;;;5.53;4.93;;;14.20;99.90;;;;;;5036783;28;20835;-84
2023/04/11 20:24:49;;;;;;;8.30;5.30;;;14.10;99.90;;;;;;5054753;28;20399;-82
2023/04/11 20:27:15;;;;;;;7.17;5.50;;;14.10;99.90;;;;;;5053968;28;20560;-83
2023/04/11 20:29:41;;;;;;;6.50;5.63;;;14.10;99.90;;;;;;5036951;28;20407;-83
2023/04/11 20:32:07;;;;;;;6.90;5.50;;;14.10;99.90;;;;;;5036645;28;20454;-83
2023/04/11 20:34:32;;;;;;;8.33;6.70;;;14.00;99.90;;;;;;5036696;28;20415;-83
2023/04/11 20:37:03;;;;;;;8.33;5.30;;;14.00;99.90;;;;;;5054333;28;20186;-83
2023/04/11 20:39:31;;;;;;;6.80;5.63;;;13.90;99.90;;;;;;5036801;28;20467;-83
2023/04/11 20:41:56;;;;;;;10.57;6.30;;;13.80;99.90;;;;;;5036836;28;20800;-84
2023/04/11 20:44:24;;;;;;;6.63;5.90;;;13.70;99.90;;;;;;5036665;28;20469;-82
2023/04/11 20:46:52;;;;;;;7.03;5.67;;;13.70;99.90;;;;;;5036413;28;20205;-82
2023/04/11 20:49:18;;;;;;;6.73;5.70;;;13.70;99.90;;;;;;5036739;28;20435;-82
2023/04/11 20:51:45;;;;;;;8.37;6.40;;;13.60;99.90;;;;;;5036343;28;20437;-83
2023/04/11 20:54:11;;;;;;;7.50;5.80;;;13.60;99.90;;;;;;5054905;28;20422;-82
2023/04/11 20:56:37;;;;;;;9.53;6.03;;;13.60;99.90;;;;;;5036363;28;20958;-82
2023/04/11 20:59:03;;;;;;;7.37;5.77;;;13.60;99.90;;;;;;5036609;28;20638;-83
2023/04/11 21:01:32;;;;;;;8.87;5.90;;;13.60;99.90;;;;;;5054212;28;20638;-82
2023/04/11 21:04:00;;;;;;;9.27;6.13;;;13.60;99.90;;;;;;5036099;28;20430;-82
2023/04/11 21:06:27;;;;;;;6.83;5.60;;;13.50;99.90;;;;;;5054114;28;20418;-82
2023/04/11 21:08:53;;;;;;;9.63;6.80;;;13.50;99.90;;;;;;5036352;28;20442;-83
2023/04/11 21:11:19;;;;;;;8.23;6.20;;;13.50;99.90;;;;;;5036089;28;20418;-82
2023/04/11 21:13:47;;;;;;;10.77;6.87;;;13.50;99.90;;;;;;5054380;28;20166;-83
2023/04/11 21:16:13;;;;;;;9.57;6.40;;;13.50;99.90;;;;;;5053888;28;20493;-83
2023/04/11 21:18:39;;;;;;;6.43;5.63;;;13.50;99.90;;;;;;5036228;28;20510;-83
2023/04/11 21:21:06;;;;;;;6.50;5.80;;;13.50;99.90;;;;;;5053964;28;20174;-82
2023/04/11 21:23:31;;;;;;;9.23;5.80;;;13.40;99.90;;;;;;5035866;28;20225;-82
2023/04/11 21:25:57;;;;;;;6.93;5.93;;;13.40;99.90;;;;;;5035986;28;20465;-83
2023/04/11 21:28:22;;;;;;;6.13;4.77;;;13.40;99.90;;;;;;5054016;28;20198;-82
2023/04/11 21:30:48;;;;;;;7.57;5.50;;;13.40;99.90;;;;;;5035939;28;20224;-83
2023/04/11 21:33:14;;;;;;;6.00;4.87;;;13.40;99.90;;;;;;5035859;28;20194;-82
2023/04/11 21:35:40;;;;;;;5.77;5.10;;;13.40;99.90;;;;;;5035911;28;20185;-83
2023/04/11 21:38:05;;;;;;;7.00;5.73;;;13.40;99.90;;;;;;5053288;28;20220;-83
2023/04/11 21:40:31;;;;;;;6.90;5.10;;;13.30;99.90;;;;;;5035824;28;20630;-83
2023/04/11 21:42:57;;;;;;;6.37;4.90;;;13.30;99.90;;;;;;5035640;28;20757;-82
2023/04/11 21:45:22;;;;;;;7.47;5.43;;;13.30;99.90;;;;;;5053598;28;20166;-83
2023/04/11 21:47:51;;;;;;;6.23;5.10;;;13.30;99.90;;;;;;5053605;28;20209;-83
2023/04/11 21:50:16;;;;;;;5.67;4.93;;;13.20;99.90;;;;;;5053566;28;20686;-83
2023/04/11 21:52:43;;;;;;;7.33;4.87;;;13.20;99.90;;;;;;5053563;28;20443;-82
2023/04/11 21:55:10;;;;;;;5.60;4.23;;;13.10;99.90;;;;;;5035579;28;20178;-82
2023/04/11 21:57:35;;;;;;;9.70;5.13;;;13.10;99.90;;;;;;5053578;28;20434;-82
2023/04/11 22:00:02;;;;;;;5.40;4.70;;;13.10;99.90;;;;;;5053454;28;20449;-82
2023/04/11 22:02:28;;;;;;;7.10;4.57;;;13.20;99.90;;;;;;5053196;28;20308;-82
2023/04/11 22:04:55;;;;;;;5.63;4.80;;;13.10;99.90;;;;;;5053487;28;20430;-82
2023/04/11 22:07:22;;;;;;;6.17;5.23;;;13.00;99.90;;;;;;5035429;28;20288;-82
2023/04/11 22:09:49;;;;;;;7.10;4.87;;;13.10;99.90;;;;;;5053334;28;20967;-82
2023/04/11 22:12:19;;;;;;;7.40;4.80;;;13.00;99.90;;;;;;5053254;28;20482;-82
2023/04/11 22:14:44;;;;;;;6.93;5.63;;;12.90;99.90;;;;;;5035388;28;20561;-82
2023/04/11 22:17:11;;;;;;;7.83;5.23;;;12.80;99.90;;;;;;5053228;28;20514;-83
2023/04/11 22:19:36;;;;;;;6.50;5.80;;;12.80;99.90;;;;;;5053322;28;20234;-83
2023/04/11 22:22:06;;;;;;;8.70;6.67;;;12.80;99.90;;;;;;5052952;28;20466;-82
2023/04/11 22:24:32;;;;;;;5.87;4.80;;;12.80;99.90;;;;;;5035689;28;20242;-82
2023/04/11 22:27:02;;;;;;;9.50;6.40;;;12.80;99.90;;;;;;5035188;28;20442;-82
2023/04/11 22:29:29;;;;;;;8.35;5.10;;;12.70;99.90;;;;;;5053248;28;20398;-83